Time;durP1;ratioP1;P1;durP2;ratioP2;P2;SDS_P1;SDS_P2;PMS_P1;PMS_P2;Temp;Humidity;BMP_temperature;BMP_pressure;BME280_temperature;BME280_humidity;BME280_pressure;Samples;Min_cycle;Max_cycle;Signal;HPM_P1;HPM_P2
2022/04/19 00:00:21;;;;;;;9.02;5.88;;;11.30;70.60;;;;;;6065036;23;96541;-70
2022/04/19 00:02:48;;;;;;;8.52;6.22;;;11.30;70.40;;;;;;6064397;23;92807;-70
2022/04/19 00:05:15;;;;;;;8.30;6.32;;;11.20;70.50;;;;;;6038724;23;95257;-70
2022/04/19 00:07:42;;;;;;;6.78;6.05;;;11.20;71.10;;;;;;6063179;23;94780;-70
2022/04/19 00:10:09;;;;;;;7.88;6.32;;;11.30;71.40;;;;;;6038698;23;92480;-71
2022/04/19 00:12:36;;;;;;;9.82;6.35;;;11.20;71.20;;;;;;6037746;23;106969;-70
2022/04/19 00:15:05;;;;;;;10.35;6.88;;;11.20;71.00;;;;;;6064575;23;92954;-70
2022/04/19 00:17:32;;;;;;;7.97;6.68;;;11.20;71.40;;;;;;6064489;23;92397;-70
2022/04/19 00:19:59;;;;;;;8.60;6.80;;;11.10;71.20;;;;;;6064843;23;92888;-70
2022/04/19 00:22:28;;;;;;;10.32;6.35;;;11.10;71.20;;;;;;6038917;23;93515;-70
2022/04/19 00:24:56;;;;;;;8.02;6.68;;;11.10;71.10;;;;;;6039179;23;105088;-70
2022/04/19 00:27:23;;;;;;;10.15;6.75;;;11.00;71.30;;;;;;6014737;23;92415;-71
2022/04/19 00:29:50;;;;;;;8.77;6.65;;;11.00;71.70;;;;;;6009319;23;135434;-70
2022/04/19 00:32:17;;;;;;;7.68;6.88;;;11.00;72.30;;;;;;6038689;23;98191;-70
2022/04/19 00:34:46;;;;;;;11.43;7.47;;;10.90;72.80;;;;;;6016039;23;97965;-70
2022/04/19 00:37:13;;;;;;;8.43;7.18;;;10.80;73.00;;;;;;6064692;23;92460;-70
2022/04/19 00:39:44;;;;;;;11.05;8.23;;;10.80;73.20;;;;;;6039576;23;92400;-70
2022/04/19 00:42:13;;;;;;;10.50;7.65;;;10.80;73.00;;;;;;6040556;23;95599;-70
2022/04/19 00:44:41;;;;;;;10.93;8.23;;;10.70;74.80;;;;;;6065983;23;92854;-71
2022/04/19 00:47:09;;;;;;;9.77;8.35;;;10.70;76.90;;;;;;6016543;23;92498;-71
2022/04/19 00:49:42;;;;;;;10.82;8.00;;;10.60;78.20;;;;;;6066646;23;91682;-70
2022/04/19 00:52:10;;;;;;;10.38;8.00;;;10.50;77.80;;;;;;6064709;23;94184;-71
2022/04/19 00:54:41;;;;;;;9.18;8.13;;;10.50;77.70;;;;;;6039757;23;95752;-71
2022/04/19 00:57:14;;;;;;;11.05;8.80;;;10.40;78.30;;;;;;6065186;23;94724;-71
2022/04/19 00:59:45;;;;;;;13.05;8.48;;;10.40;78.70;;;;;;6016505;23;92469;-71
2022/04/19 01:02:12;;;;;;;10.75;7.85;;;10.30;77.90;;;;;;6015766;23;95996;-71
2022/04/19 01:04:40;;;;;;;12.65;8.55;;;10.30;78.10;;;;;;6039803;23;95355;-71
2022/04/19 01:07:10;;;;;;;10.50;8.25;;;10.20;79.20;;;;;;6016942;23;92341;-70
2022/04/19 01:09:38;;;;;;;9.10;7.53;;;10.20;79.30;;;;;;6039987;23;92409;-71
2022/04/19 01:14:51;;;;;;;12.55;7.90;;;10.10;79.20;;;;;;6040643;23;94209;-71
2022/04/19 01:17:19;;;;;;;10.07;7.68;;;10.10;79.40;;;;;;6016530;23;92408;-70
2022/04/19 01:19:47;;;;;;;10.45;8.02;;;10.00;80.00;;;;;;6039806;23;92596;-70
2022/04/19 01:22:18;;;;;;;10.48;7.65;;;10.00;80.30;;;;;;6038409;23;97712;-70
2022/04/19 01:24:47;;;;;;;8.73;7.10;;;9.90;80.00;;;;;;6039423;23;97348;-71
2022/04/19 01:27:15;;;;;;;11.18;8.20;;;9.90;79.90;;;;;;6040337;23;92516;-71
2022/04/19 01:29:46;;;;;;;9.30;8.25;;;9.90;80.00;;;;;;6039491;23;92438;-71
2022/04/19 01:32:14;;;;;;;10.52;8.25;;;9.90;81.40;;;;;;6066093;23;93320;-70
2022/04/19 01:34:41;;;;;;;10.68;8.10;;;9.80;81.50;;;;;;6015965;23;95882;-71
2022/04/19 01:37:17;;;;;;;10.13;7.97;;;9.80;81.10;;;;;;6018086;23;92492;-71
2022/04/19 01:42:58;;;;;;;10.82;7.65;;;9.80;81.50;;;;;;6006459;23;95390;-71
2022/04/19 01:45:33;;;;;;;11.20;7.68;;;9.80;81.50;;;;;;6040071;23;95026;-71
2022/04/19 01:48:03;;;;;;;11.23;8.60;;;9.70;81.50;;;;;;6038695;23;94916;-70
2022/04/19 01:50:32;;;;;;;11.13;7.95;;;9.70;81.80;;;;;;6039761;23;92435;-71
2022/04/19 01:53:00;;;;;;;9.27;7.53;;;9.70;82.10;;;;;;6039293;23;95252;-71
2022/04/19 01:55:29;;;;;;;11.00;8.48;;;9.70;81.80;;;;;;6039785;23;94066;-70
2022/04/19 01:58:01;;;;;;;9.45;7.90;;;9.60;82.20;;;;;;6017074;23;92416;-70
2022/04/19 02:00:38;;;;;;;11.30;8.95;;;9.60;82.20;;;;;;6039961;23;92477;-70
2022/04/19 02:03:07;;;;;;;11.18;8.68;;;9.60;82.20;;;;;;6039527;23;94053;-70
2022/04/19 02:06:10;;;;;;;11.05;8.52;;;9.60;82.30;;;;;;6040281;23;95303;-71
2022/04/19 02:08:49;;;;;;;10.43;8.38;;;9.60;82.80;;;;;;6009139;23;92513;-71
2022/04/19 02:11:32;;;;;;;10.07;8.10;;;9.60;82.50;;;;;;6000645;23;92475;-70
2022/04/19 02:14:13;;;;;;;11.15;8.45;;;9.50;82.50;;;;;;6016893;23;97800;-71
2022/04/19 02:16:43;;;;;;;12.18;8.80;;;9.50;82.40;;;;;;6063441;23;97789;-70
2022/04/19 02:19:13;;;;;;;9.57;8.52;;;9.50;82.50;;;;;;6039721;23;92468;-70
2022/04/19 02:21:40;;;;;;;11.82;8.63;;;9.50;82.90;;;;;;6040307;23;92442;-70
2022/04/19 02:24:08;;;;;;;10.45;8.77;;;9.50;82.90;;;;;;6039700;23;95496;-71
2022/04/19 02:26:35;;;;;;;14.35;8.80;;;9.50;82.70;;;;;;6039601;23;95330;-70
2022/04/19 02:29:03;;;;;;;13.27;8.82;;;9.40;82.80;;;;;;6065083;23;92442;-70
2022/04/19 02:31:35;;;;;;;11.32;8.55;;;9.40;83.50;;;;;;6017696;23;92042;-70
2022/04/19 02:34:02;;;;;;;12.27;9.20;;;9.40;83.10;;;;;;6039142;23;95956;-70
2022/04/19 02:36:29;;;;;;;12.48;9.23;;;9.40;83.20;;;;;;6039470;23;95318;-71
2022/04/19 02:38:57;;;;;;;12.95;9.00;;;9.30;83.60;;;;;;6037993;23;94835;-70
2022/04/19 02:41:24;;;;;;;15.20;9.43;;;9.30;83.70;;;;;;6039614;23;92325;-70
2022/04/19 02:43:59;;;;;;;12.55;9.63;;;9.20;85.10;;;;;;6039296;23;95505;-70
2022/04/19 02:46:26;;;;;;;12.27;9.27;;;9.20;84.70;;;;;;6063466;23;94965;-70
2022/04/19 02:48:58;;;;;;;11.88;8.18;;;9.20;84.80;;;;;;6039156;23;92402;-70
2022/04/19 02:51:27;;;;;;;15.60;8.65;;;9.20;85.00;;;;;;6063935;23;92506;-70
2022/04/19 02:53:54;;;;;;;10.07;8.27;;;9.10;84.90;;;;;;6038988;23;95469;-70
2022/04/19 02:56:23;;;;;;;11.02;8.88;;;9.10;84.90;;;;;;6039550;23;95087;-71
2022/04/19 02:58:51;;;;;;;11.05;8.57;;;9.10;85.60;;;;;;6039178;23;92343;-70
2022/04/19 03:01:19;;;;;;;11.88;9.27;;;9.10;85.30;;;;;;6015988;23;92867;-71
2022/04/19 03:03:47;;;;;;;11.15;8.45;;;9.10;85.50;;;;;;6038349;23;97683;-71
2022/04/19 03:06:16;;;;;;;11.38;8.25;;;9.00;85.70;;;;;;6040399;23;97509;-71
2022/04/19 03:08:43;;;;;;;12.02;8.80;;;9.00;85.90;;;;;;6040515;23;92476;-71
2022/04/19 03:11:12;;;;;;;12.25;9.38;;;8.90;85.80;;;;;;6016050;23;92594;-71
2022/04/19 03:13:39;;;;;;;10.68;8.40;;;8.90;85.70;;;;;;6066674;23;93010;-70
2022/04/19 03:16:06;;;;;;;9.98;8.25;;;8.90;86.00;;;;;;6016543;23;95195;-70
2022/04/19 03:18:34;;;;;;;13.25;8.75;;;8.90;86.20;;;;;;6040608;23;92463;-71
2022/04/19 03:21:01;;;;;;;10.27;8.32;;;8.80;86.50;;;;;;6040702;23;91769;-70
2022/04/19 03:29:04;;;;;;;11.70;8.38;;;8.80;87.10;;;;;;6033905;23;94894;-71
2022/04/19 03:31:33;;;;;;;12.13;8.35;;;8.70;87.10;;;;;;6035772;23;92454;-70
2022/04/19 03:34:03;;;;;;;11.43;8.43;;;8.70;87.30;;;;;;6035343;23;95442;-70
2022/04/19 03:36:30;;;;;;;14.82;8.93;;;8.70;87.60;;;;;;6035697;23;94954;-70
2022/04/19 03:38:58;;;;;;;10.95;8.38;;;8.70;88.00;;;;;;6035675;23;92570;-70
2022/04/19 03:41:25;;;;;;;11.02;8.70;;;8.70;88.00;;;;;;6037669;23;92440;-70
2022/04/19 03:43:53;;;;;;;9.73;8.18;;;8.60;88.00;;;;;;6035667;23;95737;-70
2022/04/19 03:46:21;;;;;;;11.60;8.82;;;8.60;88.20;;;;;;6036103;23;95223;-70
2022/04/19 03:48:48;;;;;;;11.60;8.68;;;8.50;88.60;;;;;;6037706;23;92391;-70
2022/04/19 03:51:15;;;;;;;11.93;9.00;;;8.50;89.40;;;;;;6011791;23;93094;-70
2022/04/19 03:53:44;;;;;;;11.05;8.15;;;8.40;89.90;;;;;;6033980;23;98227;-70
2022/04/19 03:56:13;;;;;;;11.38;9.25;;;8.40;90.00;;;;;;6035142;23;97611;-70
2022/04/19 03:58:41;;;;;;;12.27;8.85;;;8.40;90.10;;;;;;6035991;23;92425;-70
2022/04/19 04:01:09;;;;;;;11.25;8.65;;;8.30;90.30;;;;;;6035472;23;92470;-70
2022/04/19 04:03:36;;;;;;;12.18;8.98;;;8.30;90.40;;;;;;6037324;23;92961;-70
2022/04/19 04:06:03;;;;;;;12.45;9.27;;;8.20;90.40;;;;;;6035313;23;94934;-70
2022/04/19 04:08:30;;;;;;;12.38;8.65;;;8.20;90.50;;;;;;6035938;23;92462;-70
2022/04/19 04:10:58;;;;;;;12.48;8.98;;;8.20;90.60;;;;;;6012407;23;92293;-70
2022/04/19 04:13:30;;;;;;;10.60;8.77;;;8.10;90.80;;;;;;6035436;23;95391;-70
2022/04/19 04:15:58;;;;;;;11.00;8.90;;;8.10;91.00;;;;;;6035165;23;94792;-71
2022/04/19 04:18:26;;;;;;;13.85;9.68;;;8.00;91.00;;;;;;6010686;23;94858;-70
2022/04/19 04:20:52;;;;;;;11.38;8.95;;;8.00;91.20;;;;;;6035741;23;92522;-71
2022/04/19 04:23:19;;;;;;;13.48;8.68;;;7.90;91.40;;;;;;6037140;23;93034;-70
2022/04/19 04:25:46;;;;;;;10.65;8.73;;;8.00;91.50;;;;;;6035437;23;95051;-70
2022/04/19 04:28:15;;;;;;;11.43;9.07;;;7.90;91.50;;;;;;6011789;23;92725;-70
2022/04/19 04:30:46;;;;;;;11.18;8.57;;;7.90;91.50;;;;;;6012749;23;92516;-70
2022/04/19 04:33:14;;;;;;;14.48;8.68;;;7.90;91.50;;;;;;6035062;23;94315;-70
2022/04/19 04:35:41;;;;;;;10.90;8.23;;;7.90;91.50;;;;;;6035836;23;94922;-70
2022/04/19 04:38:08;;;;;;;10.82;9.38;;;7.90;91.60;;;;;;6011788;23;92810;-70
2022/04/19 04:40:37;;;;;;;13.90;8.60;;;7.90;91.50;;;;;;6035759;23;92678;-70
2022/04/19 04:43:09;;;;;;;10.95;8.90;;;7.90;91.60;;;;;;6033431;23;97718;-70
2022/04/19 04:45:36;;;;;;;12.07;8.75;;;7.90;91.60;;;;;;6035445;23;97523;-70
2022/04/19 04:50:52;;;;;;;12.80;9.27;;;8.00;91.60;;;;;;6035338;23;92492;-70
2022/04/19 04:53:19;;;;;;;9.13;8.18;;;8.00;91.70;;;;;;6011199;23;94997;-70
2022/04/19 04:56:01;;;;;;;11.00;8.52;;;8.00;91.60;;;;;;6035190;23;94893;-70
2022/04/19 04:58:28;;;;;;;11.50;9.00;;;8.00;91.60;;;;;;6011519;23;92417;-71
2022/04/19 05:00:55;;;;;;;11.55;8.57;;;8.00;91.60;;;;;;6036215;23;91789;-71
2022/04/19 05:03:23;;;;;;;15.48;8.63;;;8.10;91.60;;;;;;6011365;23;95425;-70
2022/04/19 05:05:50;;;;;;;10.75;8.93;;;8.20;91.40;;;;;;6034902;23;95497;-71
2022/04/19 05:08:18;;;;;;;11.18;8.23;;;8.30;91.30;;;;;;6009996;23;94874;-71
2022/04/19 05:10:46;;;;;;;9.88;7.88;;;8.30;91.20;;;;;;6037215;23;92399;-70
2022/04/19 05:13:18;;;;;;;13.30;9.40;;;8.30;91.20;;;;;;6012443;23;95317;-70
2022/04/19 05:15:45;;;;;;;9.57;7.45;;;8.40;91.10;;;;;;6035441;23;95285;-70
2022/04/19 05:18:14;;;;;;;13.07;8.68;;;8.50;91.00;;;;;;6035291;23;92335;-71
2022/04/19 05:20:44;;;;;;;12.05;8.32;;;8.50;91.00;;;;;;6035641;23;92430;-71
2022/04/19 05:23:11;;;;;;;12.77;8.35;;;8.60;91.00;;;;;;6034816;23;95685;-71
2022/04/19 05:25:38;;;;;;;11.68;7.47;;;8.80;90.90;;;;;;6035024;23;95305;-70
2022/04/19 05:28:05;;;;;;;11.98;7.07;;;9.30;90.50;;;;;;6039389;23;92492;-70
2022/04/19 05:30:32;;;;;;;10.27;7.22;;;10.00;90.10;;;;;;6040125;23;92428;-70
2022/04/19 05:33:00;;;;;;;9.25;6.93;;;10.70;86.10;;;;;;6014609;23;98119;-70
2022/04/19 05:35:27;;;;;;;11.20;8.40;;;11.50;83.30;;;;;;6039733;23;97334;-71
2022/04/19 05:37:55;;;;;;;10.25;8.43;;;12.20;81.40;;;;;;6016262;23;92461;-71
2022/04/19 05:40:23;;;;;;;12.02;8.57;;;12.90;78.10;;;;;;6064206;23;92806;-70
2022/04/19 05:42:51;;;;;;;9.82;8.07;;;13.30;75.10;;;;;;6015769;23;95172;-70
2022/04/19 05:45:18;;;;;;;11.23;8.45;;;13.40;74.40;;;;;;6039748;23;95191;-70
2022/04/19 05:47:45;;;;;;;9.90;7.90;;;13.40;74.30;;;;;;6040635;23;92468;-70
2022/04/19 05:50:12;;;;;;;11.90;8.48;;;13.50;73.50;;;;;;6066515;23;91730;-70
2022/04/19 05:52:39;;;;;;;10.40;8.02;;;13.70;73.50;;;;;;6039790;23;95522;-70
2022/04/19 05:55:10;;;;;;;11.35;8.73;;;13.50;73.00;;;;;;6016606;23;94913;-70
2022/04/19 05:57:37;;;;;;;9.90;7.85;;;13.30;73.80;;;;;;6039122;23;94907;-70
2022/04/19 06:00:05;;;;;;;10.35;7.97;;;13.20;74.20;;;;;;6039903;23;92342;-70
2022/04/19 06:05:28;;;;;;;9.60;7.43;;;13.60;73.30;;;;;;6039324;23;95099;-70
2022/04/19 06:07:55;;;;;;;10.23;7.70;;;13.80;72.30;;;;;;6066079;23;92420;-70
2022/04/19 06:10:22;;;;;;;9.40;8.10;;;14.20;71.90;;;;;;6065436;23;92441;-70
2022/04/19 06:12:52;;;;;;;10.15;7.65;;;14.20;71.40;;;;;;6063722;23;95526;-70
2022/04/19 06:15:19;;;;;;;10.38;8.20;;;14.30;71.00;;;;;;6039772;23;95087;-70
2022/04/19 06:17:46;;;;;;;11.85;8.02;;;14.30;71.10;;;;;;6039874;23;92478;-70
2022/04/19 06:20:28;;;;;;;8.48;7.32;;;14.30;71.70;;;;;;6018272;23;92489;-71
2022/04/19 06:22:55;;;;;;;10.73;7.88;;;14.90;70.70;;;;;;6037785;23;97461;-71
2022/04/19 06:25:23;;;;;;;9.48;8.30;;;15.40;69.00;;;;;;6038978;23;97935;-71
2022/04/19 06:27:50;;;;;;;9.65;8.10;;;15.50;67.70;;;;;;6039224;23;92503;-71
2022/04/19 06:30:18;;;;;;;9.95;7.63;;;15.60;67.70;;;;;;6016046;23;92996;-71
2022/04/19 06:32:45;;;;;;;9.93;8.27;;;15.70;67.20;;;;;;6039596;23;95517;-71
2022/04/19 06:35:13;;;;;;;9.70;7.97;;;15.90;66.60;;;;;;6039129;23;94971;-71
2022/04/19 06:37:40;;;;;;;10.10;8.13;;;16.00;66.00;;;;;;6039731;23;92390;-71
2022/04/19 06:40:12;;;;;;;10.88;7.65;;;15.90;66.20;;;;;;6018457;23;91742;-71
2022/04/19 06:42:40;;;;;;;11.68;8.98;;;15.60;66.60;;;;;;6040154;23;95684;-71
2022/04/19 06:45:19;;;;;;;10.45;9.32;;;15.50;67.20;;;;;;6066668;23;92722;-71
2022/04/19 06:48:01;;;;;;;11.43;8.52;;;15.20;67.90;;;;;;6039619;23;94820;-71
2022/04/19 06:50:32;;;;;;;10.25;7.95;;;15.10;68.20;;;;;;6040533;23;92505;-71
2022/04/19 06:53:06;;;;;;;9.77;7.95;;;14.80;69.20;;;;;;6040824;23;95787;-71
2022/04/19 06:55:51;;;;;;;9.15;8.15;;;14.70;69.30;;;;;;6045349;23;92500;-71
2022/04/19 06:58:19;;;;;;;9.38;7.78;;;14.80;70.10;;;;;;6016999;23;92409;-71
2022/04/19 07:00:46;;;;;;;10.30;8.02;;;15.10;69.70;;;;;;6066860;23;92371;-71
2022/04/19 07:03:14;;;;;;;8.77;7.88;;;15.20;69.00;;;;;;6040436;23;95144;-71
2022/04/19 07:05:53;;;;;;;11.13;8.57;;;15.50;68.60;;;;;;6044150;23;92541;-71
2022/04/19 07:08:20;;;;;;;8.77;7.80;;;15.80;67.60;;;;;;6040715;23;92975;-71
2022/04/19 07:10:47;;;;;;;9.20;7.55;;;15.90;66.80;;;;;;6064703;23;92348;-71
2022/04/19 07:13:34;;;;;;;11.15;7.82;;;15.90;66.30;;;;;;6063218;23;96447;-71
2022/04/19 07:16:02;;;;;;;10.25;8.40;;;16.10;66.00;;;;;;6016500;23;98075;-71
2022/04/19 07:18:29;;;;;;;9.70;8.80;;;16.20;65.20;;;;;;6040463;23;92384;-71
2022/04/19 07:26:45;;;;;;;8.82;7.68;;;17.30;61.20;;;;;;6040525;23;95264;-71
2022/04/19 07:29:18;;;;;;;9.32;8.52;;;17.30;60.70;;;;;;6040844;23;92589;-71
2022/04/19 07:31:48;;;;;;;10.48;7.15;;;17.50;61.30;;;;;;6040674;23;91739;-71
2022/04/19 07:34:41;;;;;;;12.27;9.23;;;17.70;61.00;;;;;;6040027;23;94206;-71
2022/04/19 07:37:08;;;;;;;8.43;7.55;;;17.70;59.70;;;;;;6016549;23;95484;-71
2022/04/19 07:39:35;;;;;;;7.70;7.10;;;17.80;59.30;;;;;;6039143;23;94909;-71
2022/04/19 07:42:03;;;;;;;8.30;7.40;;;17.70;59.00;;;;;;6016798;23;92802;-71
2022/04/19 07:44:31;;;;;;;7.93;7.20;;;17.80;58.80;;;;;;6040151;23;94724;-71
2022/04/19 07:46:58;;;;;;;10.35;9.23;;;17.90;58.80;;;;;;5993092;23;95696;-71
2022/04/19 07:49:25;;;;;;;9.75;8.73;;;17.80;58.50;;;;;;6040658;23;92498;-71
2022/04/19 07:51:54;;;;;;;8.85;7.78;;;18.10;58.40;;;;;;6016395;23;92497;-71
2022/04/19 07:54:24;;;;;;;9.20;8.32;;;18.30;58.30;;;;;;6040745;23;95713;-71
2022/04/19 07:56:51;;;;;;;12.45;11.45;;;18.70;56.30;;;;;;6016801;23;94012;-71
2022/04/19 07:59:18;;;;;;;10.65;9.75;;;18.90;54.70;;;;;;6039985;23;92465;-71
2022/04/19 08:01:45;;;;;;;9.23;8.52;;;19.40;53.30;;;;;;6016726;23;92848;-71
2022/04/19 08:04:12;;;;;;;10.30;9.50;;;20.00;50.90;;;;;;6038912;23;98055;-71
2022/04/19 08:06:47;;;;;;;11.43;10.73;;;20.40;47.20;;;;;;6040122;23;97763;-71
2022/04/19 08:09:18;;;;;;;8.65;7.90;;;20.80;45.20;;;;;;6019516;23;92499;-71
2022/04/19 08:11:52;;;;;;;10.23;9.63;;;21.30;43.90;;;;;;6016445;23;92688;-71
2022/04/19 08:14:29;;;;;;;8.07;7.57;;;22.20;41.50;;;;;;6040556;23;95509;-72
2022/04/19 08:16:56;;;;;;;8.90;8.32;;;22.70;40.20;;;;;;6040084;23;95468;-71
2022/04/19 08:19:27;;;;;;;13.85;12.80;;;22.90;38.80;;;;;;6040589;23;92450;-72
2022/04/19 08:21:54;;;;;;;22.75;21.73;;;23.50;37.80;;;;;;6066183;23;91710;-71
2022/04/19 08:24:21;;;;;;;11.45;10.75;;;23.70;36.70;;;;;;6039744;23;95801;-72
2022/04/19 08:26:48;;;;;;;9.90;9.30;;;23.80;36.10;;;;;;6015574;23;94181;-71
2022/04/19 08:29:15;;;;;;;13.65;12.95;;;23.70;36.20;;;;;;6015064;23;95366;-71
2022/04/19 08:31:42;;;;;;;12.63;11.88;;;23.80;35.40;;;;;;6065507;23;92451;-72
2022/04/19 08:34:12;;;;;;;12.65;12.15;;;24.00;35.70;;;;;;6039686;23;95559;-72
2022/04/19 08:36:46;;;;;;;12.15;11.65;;;23.70;33.50;;;;;;6065256;23;92319;-71
2022/04/19 08:39:14;;;;;;;27.75;26.67;;;23.90;33.10;;;;;;6065739;23;92445;-72
2022/04/19 08:41:41;;;;;;;14.60;13.82;;;23.80;32.80;;;;;;6039448;23;92491;-72
2022/04/19 08:44:08;;;;;;;19.42;18.60;;;23.30;34.10;;;;;;6039697;23;95700;-72
2022/04/19 08:46:42;;;;;;;3.67;2.67;;;23.00;33.60;;;;;;6040483;23;93065;-72
2022/04/19 08:49:09;;;;;;;4.10;3.70;;;22.90;34.60;;;;;;6066534;23;92390;-72
2022/04/19 08:51:38;;;;;;;2.90;2.70;;;22.50;33.90;;;;;;6065838;23;98525;-71
2022/04/19 08:59:39;;;;;;;2.83;2.60;;;20.50;37.60;;;;;;6040134;23;92524;-71
2022/04/19 09:02:06;;;;;;;3.30;3.00;;;19.70;39.70;;;;;;6040159;23;92492;-71
2022/04/19 09:04:34;;;;;;;4.70;3.50;;;19.20;41.00;;;;;;6040934;23;93062;-71
2022/04/19 09:07:02;;;;;;;3.47;2.75;;;18.80;42.10;;;;;;6040170;23;92960;-72
2022/04/19 09:09:34;;;;;;;3.20;2.90;;;18.50;43.00;;;;;;6040855;23;92518;-71
2022/04/19 09:12:12;;;;;;;2.90;2.60;;;18.10;43.70;;;;;;6066411;23;91678;-71
2022/04/19 09:15:00;;;;;;;2.92;2.60;;;17.80;45.60;;;;;;6066257;23;92886;-71
2022/04/19 09:17:32;;;;;;;5.13;4.03;;;17.50;45.80;;;;;;6040367;23;95523;-71
2022/04/19 09:20:18;;;;;;;2.80;2.60;;;17.30;47.10;;;;;;6064804;23;94873;-71
2022/04/19 09:22:51;;;;;;;2.63;2.13;;;17.10;46.30;;;;;;6040577;23;92361;-71
2022/04/19 09:25:25;;;;;;;2.67;2.47;;;16.90;47.80;;;;;;6040407;23;94162;-71
2022/04/19 09:27:57;;;;;;;5.68;3.15;;;16.90;47.10;;;;;;6039490;23;95528;-71
2022/04/19 09:30:30;;;;;;;2.70;2.47;;;16.70;47.50;;;;;;6040792;23;92360;-71
2022/04/19 09:33:11;;;;;;;2.93;2.73;;;16.70;48.70;;;;;;6064355;23;92420;-71
2022/04/19 09:35:44;;;;;;;2.83;2.28;;;16.70;48.50;;;;;;6065987;23;93279;-71
2022/04/19 09:38:12;;;;;;;4.88;3.38;;;16.60;50.20;;;;;;6066562;23;92896;-71
2022/04/19 09:40:47;;;;;;;3.00;2.70;;;16.60;50.30;;;;;;6063955;23;99738;-71
2022/04/19 09:43:32;;;;;;;3.72;3.00;;;16.50;49.80;;;;;;6040178;23;92441;-71
2022/04/19 09:46:03;;;;;;;2.90;2.70;;;16.50;50.10;;;;;;6062691;23;98317;-71
2022/04/19 09:48:32;;;;;;;2.65;2.38;;;16.50;51.20;;;;;;6064651;23;98679;-71
2022/04/19 09:51:05;;;;;;;3.30;2.97;;;16.50;51.30;;;;;;6065941;23;92395;-71
2022/04/19 09:53:48;;;;;;;3.13;2.58;;;16.50;50.90;;;;;;6040162;23;92486;-71
2022/04/19 09:56:17;;;;;;;2.87;2.67;;;16.50;51.60;;;;;;6065902;23;92694;-71
2022/04/19 09:59:05;;;;;;;3.33;3.03;;;16.50;50.70;;;;;;6044330;23;92851;-71
2022/04/19 10:09:36;;;;;;;4.03;2.50;;;16.70;51.00;;;;;;6065562;23;92903;-71
2022/04/19 10:12:10;;;;;;;3.28;2.90;;;16.60;51.20;;;;;;6015202;23;95617;-71
2022/04/19 10:14:37;;;;;;;4.97;3.22;;;16.70;51.60;;;;;;6067155;23;92313;-71
2022/04/19 10:17:05;;;;;;;4.32;3.88;;;16.70;52.30;;;;;;6040703;23;103525;-71
2022/04/19 10:19:33;;;;;;;4.85;3.58;;;16.80;52.40;;;;;;6066824;23;93034;-70
2022/04/19 10:22:08;;;;;;;5.95;3.35;;;16.90;51.70;;;;;;6066915;23;92655;-70
2022/04/19 10:24:46;;;;;;;3.55;3.25;;;17.00;51.90;;;;;;6067089;23;92310;-71
2022/04/19 10:27:13;;;;;;;3.72;3.40;;;17.00;51.70;;;;;;6016256;23;95745;-71
2022/04/19 10:29:44;;;;;;;4.03;3.22;;;17.00;51.60;;;;;;6041344;23;92853;-71
2022/04/19 10:32:12;;;;;;;4.90;3.85;;;17.10;50.60;;;;;;6040934;23;92443;-70
2022/04/19 10:34:41;;;;;;;3.33;3.03;;;17.10;50.50;;;;;;6040922;23;92528;-70
2022/04/19 10:37:23;;;;;;;3.17;2.80;;;17.10;50.50;;;;;;6064954;23;95595;-70
2022/04/19 10:39:52;;;;;;;4.18;2.92;;;17.20;51.40;;;;;;6067074;23;95510;-70
2022/04/19 10:42:28;;;;;;;4.75;3.20;;;17.20;51.40;;;;;;6067030;23;92444;-70
2022/04/19 10:44:55;;;;;;;3.45;3.13;;;17.30;51.40;;;;;;6041364;23;92378;-70
2022/04/19 10:47:23;;;;;;;4.88;2.55;;;17.30;51.00;;;;;;6066739;23;92360;-70
2022/04/19 10:49:57;;;;;;;4.40;4.10;;;17.20;51.00;;;;;;6066633;23;93022;-70
2022/04/19 10:52:39;;;;;;;3.80;3.50;;;17.30;51.00;;;;;;6066991;23;92814;-70
2022/04/19 10:55:10;;;;;;;4.00;3.60;;;17.30;50.50;;;;;;6067196;23;91582;-71
2022/04/19 11:00:48;;;;;;;5.97;4.78;;;17.30;51.50;;;;;;6066678;23;92422;-71
2022/04/19 11:03:39;;;;;;;5.88;3.38;;;17.40;51.10;;;;;;6065798;23;94748;-71
2022/04/19 11:06:28;;;;;;;5.68;3.58;;;17.40;51.80;;;;;;6066745;23;92339;-71
2022/04/19 11:09:33;;;;;;;3.80;3.42;;;17.40;50.60;;;;;;6040798;23;95670;-71
2022/04/19 11:12:10;;;;;;;5.00;3.65;;;17.40;51.30;;;;;;6034322;23;92846;-71
2022/04/19 11:14:40;;;;;;;6.78;4.35;;;17.40;50.60;;;;;;6035472;23;92879;-71
2022/04/19 11:17:24;;;;;;;4.25;3.20;;;17.40;51.70;;;;;;6027859;23;92432;-71
2022/04/19 11:20:10;;;;;;;3.70;3.40;;;17.50;50.60;;;;;;6066791;23;93318;-70
2022/04/19 11:23:18;;;;;;;4.35;4.03;;;17.50;49.90;;;;;;6067011;23;93872;-70
2022/04/19 11:25:46;;;;;;;3.80;3.45;;;17.60;49.80;;;;;;6056897;23;92356;-71
2022/04/19 11:28:13;;;;;;;3.90;3.13;;;17.50;50.80;;;;;;6066021;23;92401;-71
2022/04/19 11:30:44;;;;;;;4.38;4.00;;;17.50;49.80;;;;;;6039060;23;99712;-71
2022/04/19 11:33:21;;;;;;;3.38;3.17;;;17.60;49.50;;;;;;6040300;23;98160;-70
2022/04/19 11:36:05;;;;;;;3.53;3.22;;;17.60;48.90;;;;;;6041392;23;92417;-71
2022/04/19 11:38:35;;;;;;;3.00;2.80;;;17.70;48.10;;;;;;6066744;23;92390;-71
2022/04/19 11:46:46;;;;;;;3.42;2.72;;;17.70;49.10;;;;;;6067020;23;92428;-71
2022/04/19 11:49:19;;;;;;;3.17;2.60;;;17.70;47.40;;;;;;6066772;23;92863;-70
2022/04/19 11:51:51;;;;;;;3.80;3.10;;;17.70;47.50;;;;;;6040554;23;95670;-70
2022/04/19 11:54:27;;;;;;;3.60;3.30;;;17.70;48.50;;;;;;6066178;23;92875;-70
2022/04/19 11:56:55;;;;;;;6.60;3.13;;;17.80;48.90;;;;;;6065042;23;94683;-70
2022/04/19 11:59:29;;;;;;;5.55;3.40;;;17.80;49.40;;;;;;6066706;23;92290;-70
2022/04/19 12:01:57;;;;;;;3.95;3.05;;;17.80;49.20;;;;;;6040298;23;94358;-70
2022/04/19 12:04:25;;;;;;;3.60;3.30;;;17.80;48.90;;;;;;6016144;23;95439;-70
2022/04/19 12:06:54;;;;;;;4.00;2.95;;;17.80;49.60;;;;;;6066394;23;92321;-70
2022/04/19 12:09:21;;;;;;;4.90;2.80;;;17.90;48.60;;;;;;6040586;23;92790;-70
2022/04/19 12:11:49;;;;;;;3.03;2.72;;;17.90;48.60;;;;;;6040243;23;94182;-70
2022/04/19 12:14:30;;;;;;;3.20;2.90;;;18.00;48.90;;;;;;6066417;23;92829;-70
2022/04/19 12:17:06;;;;;;;4.43;2.65;;;18.10;48.50;;;;;;6066727;23;92442;-70
2022/04/19 12:19:40;;;;;;;2.97;2.50;;;18.00;47.80;;;;;;6041175;23;92519;-70
2022/04/19 12:22:18;;;;;;;5.82;2.22;;;18.10;47.80;;;;;;6064822;23;95665;-70
2022/04/19 12:24:53;;;;;;;3.33;2.60;;;18.10;47.60;;;;;;6040192;23;97914;-70
2022/04/19 12:27:37;;;;;;;2.72;2.53;;;18.10;48.20;;;;;;6040359;23;92496;-70
2022/04/19 12:30:12;;;;;;;;;;;18.30;48.80;;;;;;6066879;23;92553;-70
2022/04/19 12:32:59;;;;;;;3.45;3.15;;;18.10;48.40;;;;;;6067722;23;92957;-70
2022/04/19 12:35:34;;;;;;;4.05;2.85;;;18.30;48.30;;;;;;6039690;23;92936;-70
2022/04/19 12:38:09;;;;;;;3.92;3.35;;;18.40;48.90;;;;;;6066655;23;92392;-70
2022/04/19 12:40:38;;;;;;;3.83;2.85;;;18.50;48.20;;;;;;6041122;23;91742;-70
2022/04/19 12:43:05;;;;;;;4.53;4.22;;;18.50;49.60;;;;;;6016357;23;95828;-70
2022/04/19 12:45:35;;;;;;;4.50;4.10;;;18.50;48.60;;;;;;6066092;23;92835;-70
2022/04/19 12:48:03;;;;;;;5.82;3.22;;;18.50;47.70;;;;;;6065249;23;94768;-70
2022/04/19 12:50:31;;;;;;;3.38;3.08;;;18.50;48.20;;;;;;6040542;23;92539;-70
2022/04/19 12:52:58;;;;;;;3.83;3.53;;;18.40;47.50;;;;;;6065447;23;106620;-70
2022/04/19 12:55:29;;;;;;;7.78;3.72;;;18.50;48.10;;;;;;6040424;23;93103;-70
2022/04/19 12:58:09;;;;;;;3.22;2.97;;;18.50;48.20;;;;;;6040643;23;92842;-70
2022/04/19 13:00:37;;;;;;;4.60;3.03;;;18.40;47.90;;;;;;6066212;23;92412;-70
2022/04/19 13:03:04;;;;;;;3.95;3.20;;;18.50;48.60;;;;;;6040051;23;94766;-70
2022/04/19 13:13:47;;;;;;;4.72;3.45;;;18.60;48.20;;;;;;6064537;23;95540;-70
2022/04/19 13:16:14;;;;;;;4.45;4.05;;;18.50;47.60;;;;;;6065458;23;103993;-70
2022/04/19 13:18:41;;;;;;;4.50;4.10;;;18.50;48.10;;;;;;6016547;23;92531;-70
2022/04/19 13:21:08;;;;;;;3.72;3.13;;;18.60;48.40;;;;;;6066202;23;92404;-70
2022/04/19 13:23:35;;;;;;;4.03;3.17;;;18.60;47.80;;;;;;6065849;23;93227;-70
2022/04/19 13:26:03;;;;;;;5.03;3.00;;;18.70;47.60;;;;;;6040339;23;95486;-70
2022/04/19 13:28:30;;;;;;;6.82;3.67;;;18.70;47.60;;;;;;6065822;23;93189;-70
2022/04/19 13:30:57;;;;;;;4.68;2.83;;;18.70;47.00;;;;;;6066651;23;91657;-70
2022/04/19 13:33:24;;;;;;;4.18;3.55;;;18.70;47.70;;;;;;6065643;23;92971;-70
2022/04/19 13:35:50;;;;;;;8.90;3.47;;;18.70;47.00;;;;;;6065875;23;100973;-70
2022/04/19 13:38:23;;;;;;;4.45;4.07;;;18.80;47.10;;;;;;6064540;23;94824;-70
2022/04/19 13:40:53;;;;;;;3.65;3.35;;;18.80;46.90;;;;;;6066304;23;92304;-70
2022/04/19 13:43:20;;;;;;;4.53;4.13;;;18.80;46.30;;;;;;6039556;23;95780;-70
2022/04/19 13:45:47;;;;;;;5.80;3.70;;;18.90;47.30;;;;;;6065471;23;92817;-70
2022/04/19 13:48:59;;;;;;;3.75;3.28;;;18.90;46.70;;;;;;6065995;23;92331;-70
2022/04/19 13:51:32;;;;;;;4.85;3.85;;;18.90;47.20;;;;;;6065787;23;92774;-71
2022/04/19 13:53:59;;;;;;;5.15;4.55;;;18.70;48.00;;;;;;6040004;23;105134;-70
2022/04/19 13:56:26;;;;;;;5.05;4.35;;;18.70;48.40;;;;;;6039802;23;95895;-70